createdAt,value
2016-02-05T00:00:23.899Z,21.08
2016-02-05T00:01:43.124Z,21.07
2016-02-05T00:02:30.799Z,21.1
2016-02-05T00:03:49.644Z,21.08
2016-02-05T00:04:39.867Z,21.04
2016-02-05T00:05:52.807Z,21.1
2016-02-05T00:07:02.294Z,21.07
2016-02-05T00:07:55.984Z,21
2016-02-05T00:09:08.033Z,21.01
2016-02-05T00:09:36.786Z,21.05
2016-02-05T00:10:36.868Z,21.04
2016-02-05T00:11:49.574Z,21.05
2016-02-05T00:12:49.592Z,21.04
2016-02-05T00:14:02.626Z,21.1
2016-02-05T00:14:56.368Z,21.04
2016-02-05T00:16:08.449Z,21.05
2016-02-05T00:17:08.280Z,20.95
2016-02-05T00:17:46.534Z,21.01
2016-02-05T00:19:17.864Z,20.96
2016-02-05T00:19:56.133Z,20.95
2016-02-05T00:22:37.017Z,20.93
2016-02-05T00:23:11.360Z,21.03
2016-02-05T00:24:11.394Z,21.07
2016-02-05T00:25:18.323Z,20.95
2016-02-05T00:26:15.342Z,21.03
2016-02-05T00:27:15.439Z,21
2016-02-05T00:28:15.425Z,21.05
2016-02-05T00:29:21.709Z,20.95
2016-02-05T00:30:28.062Z,21.03
2016-02-05T00:31:28.049Z,20.95
2016-02-05T00:32:15.494Z,20.93
2016-02-05T00:33:34.766Z,20.93
2016-02-05T00:34:16.969Z,21.01
2016-02-05T00:36:15.609Z,21.01
2016-02-05T00:36:29.611Z,21.07
2016-02-05T00:37:47.411Z,21.04
2016-02-05T00:38:44.102Z,20.92
2016-02-05T00:39:50.526Z,20.96
2016-02-05T00:40:50.528Z,20.98
2016-02-05T00:42:54.019Z,21.05
2016-02-05T00:43:06.571Z,21.07
2016-02-05T00:44:06.606Z,21.08
2016-02-05T00:45:06.656Z,20.9
2016-02-05T00:46:07.283Z,20.92
2016-02-05T00:47:12.973Z,20.96
2016-02-05T00:48:06.836Z,21.05
2016-02-05T00:49:06.760Z,21.03
2016-02-05T00:50:07.387Z,20.95
2016-02-05T00:51:08.297Z,20.98
2016-02-05T00:52:06.831Z,20.95
2016-02-05T00:53:19.631Z,21.01
2016-02-05T00:54:06.914Z,21.01
2016-02-05T00:55:06.935Z,20.92
2016-02-05T00:56:26.157Z,20.96
2016-02-05T00:57:10.207Z,20.95
2016-02-05T00:58:29.276Z,20.93
2016-02-05T01:00:41.440Z,20.9
2016-02-05T01:01:10.768Z,20.96
2016-02-05T01:02:22.943Z,20.95
2016-02-05T01:03:11.648Z,20.95
2016-02-05T01:04:29.448Z,20.96
2016-02-05T01:05:29.482Z,20.96
2016-02-05T01:06:35.972Z,20.95
2016-02-05T01:07:41.616Z,20.96
2016-02-05T01:08:43.088Z,21.03
2016-02-05T01:09:10.369Z,21.01
2016-02-05T01:10:10.402Z,20.9
2016-02-05T01:11:10.452Z,20.96
2016-02-05T01:12:16.751Z,21
2016-02-05T01:13:16.787Z,20.95
2016-02-05T01:14:29.774Z,20.93
2016-02-05T01:15:10.558Z,20.95
2016-02-05T01:16:41.891Z,20.98
2016-02-05T01:17:25.766Z,20.98
2016-02-05T01:18:25.773Z,20.9
2016-02-05T01:19:25.838Z,20.98
2016-02-05T01:20:38.592Z,20.93
2016-02-05T01:21:32.753Z,20.95
2016-02-05T01:22:51.552Z,20.93
2016-02-05T01:23:39.273Z,20.96
2016-02-05T01:24:57.900Z,20.95
2016-02-05T01:25:48.779Z,20.83
2016-02-05T01:27:01.078Z,20.93
2016-02-05T01:27:55.492Z,20.93
2016-02-05T01:29:30.557Z,20.95
2016-02-05T01:30:29.872Z,20.98
2016-02-05T01:31:29.938Z,20.98
2016-02-05T01:32:42.677Z,20.92
2016-02-05T01:33:30.630Z,20.88
2016-02-05T01:34:49.183Z,20.9
2016-02-05T01:35:42.752Z,20.98
2016-02-05T01:36:30.017Z,20.95
2016-02-05T01:37:49.273Z,20.88
2016-02-05T01:39:01.417Z,20.96
2016-02-05T01:39:55.810Z,20.89
2016-02-05T01:40:30.310Z,20.92
2016-02-05T01:41:30.781Z,20.89
2016-02-05T01:42:30.252Z,20.92
2016-02-05T01:43:36.492Z,20.95
2016-02-05T01:44:30.149Z,20.92
2016-02-05T01:45:30.291Z,20.89
2016-02-05T01:46:30.310Z,20.93
2016-02-05T01:47:36.629Z,20.92
2016-02-05T01:48:30.379Z,20.92
2016-02-05T01:49:43.134Z,20.9
2016-02-05T01:50:30.416Z,20.86
2016-02-05T01:51:49.671Z,20.95
2016-02-05T01:52:30.471Z,20.92
2016-02-05T01:53:30.709Z,20.9
2016-02-05T01:54:43.276Z,20.9
2016-02-05T01:55:30.560Z,20.96
2016-02-05T01:56:30.579Z,20.86
2016-02-05T01:57:43.351Z,20.95
2016-02-05T01:58:30.640Z,20.83
2016-02-05T01:59:30.657Z,20.9
2016-02-05T02:00:30.832Z,20.92
2016-02-05T02:01:37.025Z,20.86
2016-02-05T02:02:30.744Z,20.85
2016-02-05T02:03:43.520Z,20.9
2016-02-05T02:04:30.833Z,20.88
2016-02-05T02:05:30.836Z,20.86
2016-02-05T02:06:43.590Z,20.88
2016-02-05T02:07:30.902Z,20.89
2016-02-05T02:08:30.922Z,20.88
2016-02-05T02:09:37.225Z,20.96
2016-02-05T02:10:43.696Z,20.89
2016-02-05T02:11:31.009Z,20.85
2016-02-05T02:12:50.312Z,20.83
2016-02-05T02:13:38.017Z,20.89
2016-02-05T02:14:56.738Z,20.88
2016-02-05T02:15:31.113Z,21
2016-02-05T02:16:31.132Z,20.83
2016-02-05T02:17:31.165Z,20.86
2016-02-05T02:18:31.200Z,20.95
2016-02-05T02:19:31.859Z,20.9
2016-02-05T02:20:31.238Z,20.88
2016-02-05T02:21:31.256Z,20.92
2016-02-05T02:22:44.059Z,20.9
2016-02-05T02:23:31.325Z,20.86
2016-02-05T02:24:31.453Z,20.9
2016-02-05T02:25:34.567Z,20.9
2016-02-05T02:26:34.555Z,20.95
2016-02-05T02:27:34.620Z,20.9
2016-02-05T02:28:40.905Z,20.82
2016-02-05T02:29:34.815Z,20.96
2016-02-05T02:30:34.698Z,20.89
2016-02-05T02:31:40.982Z,20.82
2016-02-05T02:32:34.732Z,20.9
2016-02-05T02:33:34.796Z,20.93
2016-02-05T02:34:34.816Z,20.95
2016-02-05T02:35:34.834Z,20.88
2016-02-05T02:36:34.899Z,20.89
2016-02-05T02:37:41.123Z,20.86
2016-02-05T02:38:34.904Z,20.93
2016-02-05T02:39:34.923Z,20.77
2016-02-05T02:40:34.958Z,20.96
2016-02-05T02:41:47.712Z,20.8
2016-02-05T02:42:35.024Z,20.86
2016-02-05T02:43:47.781Z,20.9
2016-02-05T02:44:41.319Z,20.9
2016-02-05T02:45:35.101Z,20.98
2016-02-05T02:46:47.903Z,20.92
2016-02-05T02:47:35.153Z,20.89
2016-02-05T02:48:54.408Z,20.95
2016-02-05T02:49:35.283Z,20.89
2016-02-05T02:50:35.239Z,20.89
2016-02-05T02:51:35.273Z,20.9
2016-02-05T02:52:35.276Z,20.98
2016-02-05T02:53:48.050Z,20.8
2016-02-05T02:54:35.940Z,20.77
2016-02-05T02:55:35.364Z,20.95
2016-02-05T02:56:48.136Z,20.75
2016-02-05T02:57:35.417Z,20.86
2016-02-05T02:59:32.439Z,20.85
2016-02-05T02:59:45.036Z,20.86
2016-02-05T03:00:45.073Z,20.82
2016-02-05T03:01:45.075Z,20.8
2016-02-05T03:02:46.516Z,20.89
2016-02-05T03:03:45.160Z,20.92
2016-02-05T03:04:45.178Z,20.93
2016-02-05T03:05:45.197Z,20.88
2016-02-05T03:06:57.981Z,20.77
2016-02-05T03:07:45.233Z,20.92
2016-02-05T03:08:45.268Z,20.86
2016-02-05T03:09:45.317Z,20.92
2016-02-05T03:10:45.367Z,20.89
2016-02-05T03:11:58.103Z,20.83
2016-02-05T03:12:58.123Z,20.83
2016-02-05T03:14:04.614Z,20.8
2016-02-05T03:14:45.430Z,20.83
2016-02-05T03:15:46.075Z,20.89
2016-02-05T03:16:58.235Z,20.82
2016-02-05T03:17:45.581Z,20.83
2016-02-05T03:19:04.786Z,20.82
2016-02-05T03:19:58.308Z,20.82
2016-02-05T03:21:11.296Z,20.92
2016-02-05T03:22:04.831Z,20.83
2016-02-05T03:22:45.958Z,20.86
2016-02-05T03:23:45.711Z,20.78
2016-02-05T03:24:45.744Z,20.83
2016-02-05T03:25:58.467Z,20.89
2016-02-05T03:26:45.766Z,20.9
2016-02-05T03:28:11.488Z,20.86
2016-02-05T03:28:55.365Z,20.78
2016-02-05T03:29:55.399Z,20.82
2016-02-05T03:30:56.055Z,20.83
2016-02-05T03:31:55.433Z,20.85
2016-02-05T03:32:55.466Z,20.78
2016-02-05T03:34:08.265Z,20.88
2016-02-05T03:34:56.112Z,20.78
2016-02-05T03:36:14.771Z,20.88
2016-02-05T03:36:55.586Z,20.82
2016-02-05T03:37:55.606Z,20.78
2016-02-05T03:38:56.234Z,20.86
2016-02-05T03:39:56.299Z,20.77
2016-02-05T03:40:55.693Z,20.88
2016-02-05T03:41:55.695Z,20.75
2016-02-05T03:42:55.761Z,20.71
2016-02-05T03:43:55.779Z,20.74
2016-02-05T03:44:55.813Z,20.77
2016-02-05T03:45:55.849Z,20.85
2016-02-05T03:46:55.851Z,20.74
2016-02-05T03:48:02.152Z,20.75
2016-02-05T03:49:08.638Z,20.73
2016-02-05T03:50:15.141Z,20.82
2016-02-05T03:50:55.987Z,20.74
2016-02-05T03:51:56.022Z,20.71
2016-02-05T03:53:21.758Z,20.71
2016-02-05T03:53:55.901Z,20.75
2016-02-05T03:54:56.061Z,20.82
2016-02-05T03:55:56.109Z,20.73
2016-02-05T03:56:57.566Z,20.73
2016-02-05T03:57:56.166Z,20.78
2016-02-05T03:58:56.184Z,20.77
2016-02-05T03:59:56.224Z,20.78
2016-02-05T04:01:08.977Z,20.78
2016-02-05T04:01:56.261Z,20.8
2016-02-05T04:02:56.295Z,20.71
2016-02-05T04:03:56.344Z,20.75
2016-02-05T04:05:09.067Z,20.77
2016-02-05T04:05:56.384Z,20.74
2016-02-05T04:07:22.075Z,20.74
2016-02-05T04:08:09.155Z,20.73
2016-02-05T04:09:27.752Z,20.71
2016-02-05T04:10:11.645Z,20.74
2016-02-05T04:11:11.663Z,20.7
2016-02-05T04:12:12.291Z,20.71
2016-02-05T04:13:24.466Z,20.67
2016-02-05T04:14:24.530Z,20.74
2016-02-05T04:15:37.471Z,20.75
2016-02-05T04:16:34.927Z,20.74
2016-02-05T04:17:15.757Z,20.67
2016-02-05T04:18:15.777Z,20.71
2016-02-05T04:19:16.013Z,20.71
2016-02-05T04:20:16.033Z,20.75
2016-02-05T04:21:28.628Z,20.75
2016-02-05T04:22:17.334Z,20.73
2016-02-05T04:23:41.581Z,20.66
2016-02-05T04:24:25.440Z,20.75
2016-02-05T04:25:51.178Z,20.71
2016-02-05T04:26:38.241Z,20.74
2016-02-05T04:27:51.230Z,20.71
2016-02-05T04:29:22.560Z,20.74
2016-02-05T04:30:00.797Z,20.78
2016-02-05T04:30:44.675Z,20.7
2016-02-05T04:31:44.912Z,20.74
2016-02-05T04:32:44.705Z,20.8
2016-02-05T04:33:44.747Z,20.71
2016-02-05T04:34:44.960Z,20.74
2016-02-05T04:35:44.798Z,20.8
2016-02-05T04:36:51.059Z,20.75
2016-02-05T04:37:51.089Z,20.82
2016-02-05T04:38:57.574Z,20.68
2016-02-05T04:39:44.902Z,20.77
2016-02-05T04:41:04.090Z,20.83
2016-02-05T04:41:44.934Z,20.86
2016-02-05T04:43:47.546Z,20.83
2016-02-05T04:44:25.593Z,20.82
2016-02-05T04:46:16.346Z,20.83
2016-02-05T04:46:28.924Z,20.82
2016-02-05T04:47:28.941Z,20.82
2016-02-05T04:48:28.943Z,20.89
2016-02-05T04:49:41.696Z,20.82
2016-02-05T04:50:28.995Z,20.88
2016-02-05T04:51:29.093Z,20.75
2016-02-05T04:52:41.798Z,20.86
2016-02-05T04:53:29.082Z,20.88
2016-02-05T04:54:48.337Z,20.8
2016-02-05T04:55:41.899Z,20.8
2016-02-05T04:56:54.831Z,20.92
2016-02-05T04:59:41.462Z,20.82
2016-02-05T05:00:41.420Z,20.89
2016-02-05T05:02:12.738Z,20.92
2016-02-05T05:03:22.352Z,20.89
2016-02-05T05:03:56.684Z,20.8
2016-02-05T05:05:28.233Z,20.8
2016-02-05T05:06:06.516Z,20.89
2016-02-05T05:07:32.191Z,20.89
2016-02-05T05:08:06.617Z,20.78
2016-02-05T05:09:38.478Z,20.88
2016-02-05T05:10:13.262Z,20.9
2016-02-05T05:12:12.877Z,20.88
2016-02-05T05:12:51.099Z,20.78
2016-02-05T05:13:25.489Z,20.92
2016-02-05T05:14:56.807Z,20.88
2016-02-05T05:15:35.041Z,20.88
2016-02-05T05:16:35.091Z,20.89
2016-02-05T05:17:47.957Z,20.92
2016-02-05T05:18:35.128Z,20.95
2016-02-05T05:19:54.383Z,20.89
2016-02-05T05:20:47.933Z,20.9
2016-02-05T05:22:06.577Z,20.83
2016-02-05T05:22:44.861Z,20.88
2016-02-05T05:24:41.833Z,20.8
2016-02-05T05:24:54.398Z,20.78
2016-02-05T05:26:45.778Z,20.9
2016-02-05T05:27:11.091Z,20.89
2016-02-05T05:28:23.735Z,20.85
2016-02-05T05:29:11.163Z,20.8
2016-02-05T05:30:30.387Z,20.82
2016-02-05T05:31:12.624Z,20.89
2016-02-05T05:32:42.581Z,20.78
2016-02-05T05:33:26.458Z,20.77
2016-02-05T05:34:45.714Z,20.77
2016-02-05T05:35:29.589Z,20.78
2016-02-05T05:38:41.788Z,20.78
2016-02-05T05:39:41.822Z,20.73
2016-02-05T05:40:41.888Z,20.71
2016-02-05T05:41:54.610Z,20.74
2016-02-05T05:42:41.923Z,20.68
2016-02-05T05:44:07.586Z,20.71
2016-02-05T05:44:51.495Z,20.71
2016-02-05T05:46:56.000Z,20.71
2016-02-05T05:48:59.288Z,20.63
2016-02-05T05:49:11.866Z,20.66
2016-02-05T05:50:11.900Z,20.66
2016-02-05T05:51:12.137Z,20.63
2016-02-05T05:52:24.671Z,20.75
2016-02-05T05:53:12.175Z,20.78
2016-02-05T05:54:37.677Z,20.77
2016-02-05T05:55:12.148Z,20.74
2016-02-05T05:56:43.369Z,20.7
2016-02-05T05:57:27.309Z,20.71
2016-02-05T05:58:27.344Z,20.78
2016-02-05T05:59:33.581Z,20.78
2016-02-05T06:00:27.334Z,20.67
2016-02-05T06:01:40.367Z,20.71
2016-02-05T06:02:33.637Z,20.74
2016-02-05T06:03:27.436Z,20.66
2016-02-05T06:04:40.158Z,20.67
2016-02-05T06:05:58.866Z,20.63
2016-02-05T06:06:43.381Z,20.7
2016-02-05T06:08:08.434Z,20.67
2016-02-05T06:08:40.326Z,20.67
2016-02-05T06:11:21.225Z,20.67
2016-02-05T06:11:55.664Z,20.68
2016-02-05T06:12:55.605Z,20.66
2016-02-05T06:14:08.404Z,20.6
2016-02-05T06:15:26.970Z,20.6
2016-02-05T06:16:10.831Z,20.59
2016-02-05T06:19:17.452Z,20.63
2016-02-05T06:20:17.532Z,20.6
2016-02-05T06:22:46.306Z,20.71
2016-02-05T06:23:30.278Z,20.66
2016-02-05T06:24:59.064Z,20.77
2016-02-05T06:25:59.067Z,20.86
2016-02-05T06:27:11.819Z,20.89
2016-02-05T06:27:59.323Z,20.8
2016-02-05T06:29:24.797Z,20.78
2016-02-05T06:29:59.153Z,20.71
2016-02-05T06:30:59.186Z,20.74
2016-02-05T06:31:59.048Z,20.74
2016-02-05T06:33:05.504Z,20.71
2016-02-05T06:34:05.523Z,20.71
2016-02-05T06:35:00.712Z,20.71
2016-02-05T06:36:18.559Z,20.67
2016-02-05T06:37:02.468Z,20.7
2016-02-05T06:39:43.505Z,20.73
2016-02-05T06:40:56.198Z,20.71
2016-02-05T06:41:43.512Z,20.7
2016-02-05T06:43:02.689Z,20.71
2016-02-05T06:43:44.954Z,20.8
2016-02-05T06:45:43.490Z,20.77
2016-02-05T06:46:53.012Z,20.71
2016-02-05T06:47:53.077Z,20.78
2016-02-05T06:49:24.391Z,20.68
2016-02-05T06:50:21.832Z,20.7
2016-02-05T06:51:59.650Z,20.7
2016-02-05T06:52:37.994Z,20.71
2016-02-05T06:54:03.594Z,20.7
2016-02-05T06:54:47.469Z,20.67
2016-02-05T06:55:47.486Z,20.73
2016-02-05T06:56:53.773Z,20.66
2016-02-05T06:57:53.823Z,20.73
2016-02-05T06:59:00.310Z,20.64
2016-02-05T06:59:47.604Z,20.67
2016-02-05T07:01:00.516Z,20.68
2016-02-05T07:01:53.909Z,20.74
2016-02-05T07:02:47.769Z,20.73
2016-02-05T07:04:00.509Z,20.68
2016-02-05T07:04:47.745Z,20.68
2016-02-05T07:06:13.437Z,20.63
2016-02-05T07:06:48.437Z,20.67
2016-02-05T07:08:13.505Z,20.63
2016-02-05T07:08:57.383Z,20.7
2016-02-05T07:10:23.089Z,20.64
2016-02-05T07:10:57.420Z,20.71
2016-02-05T07:13:12.676Z,20.67
2016-02-05T07:14:12.663Z,20.7
2016-02-05T07:16:15.309Z,20.67
2016-02-05T07:16:53.577Z,20.64
2016-02-05T07:17:27.952Z,20.63
2016-02-05T07:18:27.955Z,20.75
2016-02-05T07:19:40.740Z,20.63
2016-02-05T07:20:28.007Z,20.67
2016-02-05T07:21:53.708Z,20.66
2016-02-05T07:22:47.270Z,20.6
2016-02-05T07:23:28.225Z,20.63
2016-02-05T07:24:53.997Z,20.66
2016-02-05T07:25:28.216Z,20.68
2016-02-05T07:26:28.187Z,20.6
2016-02-05T07:27:40.893Z,20.7
2016-02-05T07:28:37.771Z,20.68
2016-02-05T07:29:37.792Z,20.66
2016-02-05T07:30:50.591Z,20.63
2016-02-05T07:31:57.144Z,20.64
2016-02-05T07:32:41.034Z,20.66
2016-02-05T07:34:00.274Z,20.58
2016-02-05T07:34:47.385Z,20.59
2016-02-05T07:36:06.829Z,20.59
2016-02-05T07:36:56.987Z,20.67
2016-02-05T07:37:50.737Z,20.66
2016-02-05T07:38:50.896Z,20.67
2016-02-05T07:39:50.789Z,20.66
2016-02-05T07:40:50.808Z,20.63
2016-02-05T07:43:06.018Z,20.66
2016-02-05T07:44:06.052Z,20.68
2016-02-05T07:45:06.837Z,20.7
2016-02-05T07:46:12.371Z,20.67
2016-02-05T07:47:06.139Z,20.67
2016-02-05T07:48:18.922Z,20.71
2016-02-05T07:49:06.628Z,20.71
2016-02-05T07:50:25.444Z,20.68
2016-02-05T07:51:06.649Z,20.74
2016-02-05T07:53:21.483Z,20.77
2016-02-05T07:54:21.501Z,20.75
2016-02-05T07:55:34.257Z,20.73
2016-02-05T07:56:21.555Z,20.77
2016-02-05T07:57:47.246Z,20.73
2016-02-05T07:58:23.107Z,20.74
2016-02-05T07:59:53.551Z,20.74
2016-02-05T08:00:34.395Z,20.75
2016-02-05T08:01:21.668Z,20.66
2016-02-05T08:02:42.393Z,20.78
2016-02-05T08:03:28.005Z,20.71
2016-02-05T08:04:53.089Z,20.7
2016-02-05T08:05:37.074Z,20.73
2016-02-05T08:06:37.044Z,20.74
2016-02-05T08:07:49.813Z,20.71
2016-02-05T08:08:38.364Z,20.73
2016-02-05T08:10:02.791Z,20.71
2016-02-05T08:10:37.759Z,20.77
2016-02-05T08:12:08.499Z,20.77
2016-02-05T08:12:49.952Z,20.83
2016-02-05T08:13:37.439Z,20.75
2016-02-05T08:14:37.254Z,20.77
2016-02-05T08:16:39.900Z,20.74
2016-02-05T08:16:52.525Z,20.71
2016-02-05T08:17:52.527Z,20.73
2016-02-05T08:19:05.283Z,20.8
2016-02-05T08:19:52.599Z,20.74
2016-02-05T08:21:11.823Z,20.73
2016-02-05T08:21:58.920Z,20.68
2016-02-05T08:23:18.407Z,20.75
2016-02-05T08:24:27.768Z,20.73
2016-02-05T08:25:02.334Z,20.77
2016-02-05T08:26:28.040Z,20.77
2016-02-05T08:27:02.652Z,20.8
2016-02-05T08:28:02.406Z,20.78
2016-02-05T08:29:02.456Z,20.75
2016-02-05T08:30:15.209Z,20.8
2016-02-05T08:31:08.744Z,20.77
2016-02-05T08:32:02.513Z,20.75
2016-02-05T08:33:15.281Z,20.71
2016-02-05T08:34:28.424Z,20.82
2016-02-05T08:36:37.836Z,20.77
2016-02-05T08:37:12.245Z,20.78
2016-02-05T08:38:12.248Z,20.71
2016-02-05T08:39:12.266Z,20.78
2016-02-05T08:40:18.754Z,20.75
2016-02-05T08:41:12.335Z,20.77
2016-02-05T08:42:25.103Z,20.78
2016-02-05T08:43:18.855Z,20.77
2016-02-05T08:44:31.593Z,20.78
2016-02-05T08:45:12.408Z,20.8
2016-02-05T08:46:38.114Z,20.8
2016-02-05T08:47:18.741Z,20.88
2016-02-05T08:48:43.809Z,20.86
2016-02-05T08:49:53.374Z,20.88
2016-02-05T08:50:27.737Z,20.75
2016-02-05T08:52:49.212Z,20.9
2016-02-05T08:53:42.996Z,20.92
2016-02-05T08:54:55.908Z,20.86
2016-02-05T08:55:43.627Z,20.89
2016-02-05T08:58:05.416Z,20.89
2016-02-05T08:59:11.683Z,20.92
2016-02-05T09:00:21.266Z,20.88
2016-02-05T09:01:52.615Z,20.82
2016-02-05T09:02:30.868Z,20.78
2016-02-05T09:03:56.621Z,20.89
2016-02-05T09:04:43.514Z,20.9
2016-02-05T09:06:37.523Z,20.92
2016-02-05T09:07:52.729Z,20.86
2016-02-05T09:08:52.762Z,20.86
2016-02-05T09:09:59.049Z,20.82
2016-02-05T09:10:59.098Z,20.83
2016-02-05T09:11:54.239Z,20.9
2016-02-05T09:12:52.852Z,20.85
2016-02-05T09:14:05.627Z,20.85
2016-02-05T09:14:59.174Z,20.89
2016-02-05T09:16:18.665Z,20.77
2016-02-05T09:17:28.356Z,20.82
2016-02-05T09:18:59.565Z,20.73
2016-02-05T09:19:43.424Z,20.78
2016-02-05T09:20:27.356Z,20.82
2016-02-05T09:21:27.327Z,20.77
2016-02-05T09:22:27.377Z,20.86
2016-02-05T09:23:33.645Z,20.77
2016-02-05T09:24:27.414Z,20.83
2016-02-05T09:25:40.186Z,20.83
2016-02-05T09:26:28.094Z,20.8
2016-02-05T09:27:46.707Z,20.77
2016-02-05T09:28:27.522Z,20.82
2016-02-05T09:30:30.168Z,20.77
2016-02-05T09:30:42.762Z,20.8
2016-02-05T09:31:42.764Z,20.75
2016-02-05T09:32:55.548Z,20.74
2016-02-05T09:33:55.379Z,20.73
2016-02-05T09:35:02.056Z,20.82
2016-02-05T09:36:08.560Z,20.9
2016-02-05T09:36:42.919Z,20.92
2016-02-05T09:38:45.549Z,20.89
2016-02-05T09:38:58.299Z,20.88
2016-02-05T09:39:58.411Z,20.83
2016-02-05T09:41:17.338Z,20.82
2016-02-05T09:42:11.075Z,20.82
2016-02-05T09:43:24.062Z,20.82
2016-02-05T09:46:07.977Z,20.82
2016-02-05T09:46:39.774Z,20.85
2016-02-05T09:48:14.267Z,20.8
2016-02-05T09:49:23.833Z,20.82
2016-02-05T09:50:49.523Z,20.74
2016-02-05T09:51:30.790Z,20.82
2016-02-05T09:52:53.496Z,20.75
2016-02-05T09:53:27.813Z,20.89
2016-02-05T09:55:24.819Z,20.85
2016-02-05T09:55:38.022Z,20.9
2016-02-05T09:56:38.024Z,20.88
2016-02-05T09:57:38.089Z,20.93
2016-02-05T09:58:50.859Z,20.83
2016-02-05T09:59:39.534Z,20.86
2016-02-05T10:00:38.145Z,20.78
2016-02-05T10:01:38.195Z,20.88
2016-02-05T10:02:38.839Z,20.92
2016-02-05T10:03:50.951Z,21.2
2016-02-05T10:05:03.942Z,21.44
2016-02-05T10:06:13.335Z,21.33
2016-02-05T10:07:00.757Z,21.19
2016-02-05T10:08:19.216Z,21.1
2016-02-05T10:09:03.765Z,21.1
2016-02-05T10:11:38.365Z,21.01
2016-02-05T10:12:12.789Z,20.89
2016-02-05T10:14:27.951Z,20.89
2016-02-05T10:15:27.953Z,20.93
2016-02-05T10:16:28.005Z,20.85
2016-02-05T10:17:35.694Z,20.93
2016-02-05T10:18:34.326Z,20.9
2016-02-05T10:19:47.313Z,20.89
2016-02-05T10:20:40.831Z,20.95
2016-02-05T10:22:25.150Z,20.9
2016-02-05T10:22:56.946Z,20.8
2016-02-05T10:23:40.809Z,20.88
2016-02-05T10:24:40.842Z,20.93
2016-02-05T10:25:41.095Z,20.9
2016-02-05T10:26:40.925Z,20.89
2016-02-05T10:27:47.210Z,20.83
2016-02-05T10:28:40.962Z,20.89
2016-02-05T10:29:53.762Z,20.89
2016-02-05T10:30:53.749Z,20.88
2016-02-05T10:32:06.708Z,20.75
2016-02-05T10:32:41.067Z,20.78
2016-02-05T10:34:13.013Z,20.82
2016-02-05T10:34:51.325Z,20.78
2016-02-05T10:37:00.925Z,20.89
2016-02-05T10:38:00.975Z,20.89
2016-02-05T10:39:26.654Z,20.75
2016-02-05T10:40:07.922Z,20.86
2016-02-05T10:42:07.537Z,20.8
2016-02-05T10:42:20.099Z,20.85
2016-02-05T10:43:20.118Z,20.9
2016-02-05T10:44:26.417Z,20.92
2016-02-05T10:45:26.435Z,20.82
2016-02-05T10:46:32.969Z,20.78
2016-02-05T10:47:32.987Z,20.85
2016-02-05T10:48:39.474Z,20.89
2016-02-05T10:49:45.977Z,20.89
2016-02-05T10:50:49.042Z,20.88
2016-02-05T10:51:49.092Z,20.83
2016-02-05T10:53:01.189Z,20.8
2016-02-05T10:54:04.269Z,20.82
2016-02-05T10:55:04.303Z,20.88
2016-02-05T10:55:33.009Z,20.78
2016-02-05T10:56:33.043Z,20.75
2016-02-05T10:57:39.358Z,20.82
2016-02-05T10:58:39.345Z,20.75
2016-02-05T10:59:33.130Z,20.85
2016-02-05T11:00:45.898Z,20.8
2016-02-05T11:01:58.854Z,20.83
2016-02-05T11:02:58.875Z,20.8
2016-02-05T11:05:45.430Z,20.74
2016-02-05T11:06:14.150Z,20.83
2016-02-05T11:08:23.734Z,20.71
2016-02-05T11:09:23.768Z,20.86
2016-02-05T11:10:23.990Z,20.78
2016-02-05T11:11:30.087Z,20.74
2016-02-05T11:12:36.777Z,20.8
2016-02-05T11:13:43.124Z,20.75
2016-02-05T11:14:27.033Z,20.77
2016-02-05T11:17:08.042Z,20.78
2016-02-05T11:20:26.927Z,20.82
2016-02-05T11:21:26.930Z,20.8
2016-02-05T11:22:36.479Z,20.77
2016-02-05T11:23:36.528Z,20.82
2016-02-05T11:24:36.564Z,20.75
2016-02-05T11:25:37.192Z,20.85
2016-02-05T11:26:49.381Z,20.71
2016-02-05T11:27:43.494Z,20.73
2016-02-05T11:29:52.842Z,20.75
2016-02-05T11:30:49.455Z,20.74
2016-02-05T11:31:49.474Z,20.74
2016-02-05T11:32:49.509Z,20.77
2016-02-05T11:33:55.808Z,20.7
2016-02-05T11:34:50.202Z,20.71
2016-02-05T11:36:08.817Z,20.74
2016-02-05T11:37:19.776Z,20.71
2016-02-05T11:40:57.285Z,20.78
2016-02-05T11:41:35.632Z,20.77
2016-02-05T11:43:50.809Z,20.8
2016-02-05T11:44:50.812Z,20.73
2016-02-05T11:46:22.161Z,20.73
2016-02-05T11:47:06.067Z,20.82
2016-02-05T11:48:25.291Z,20.82
2016-02-05T11:49:12.263Z,20.83
2016-02-05T11:50:34.953Z,20.83
2016-02-05T11:51:09.315Z,20.8
2016-02-05T11:52:40.630Z,20.75
2016-02-05T11:53:18.883Z,20.83
2016-02-05T11:54:18.916Z,20.71
2016-02-05T11:55:25.232Z,20.8
2016-02-05T11:56:19.000Z,20.85
2016-02-05T11:57:31.784Z,20.74
2016-02-05T11:58:19.225Z,20.77
2016-02-05T11:59:38.275Z,20.68
2016-02-05T12:00:22.183Z,20.71
2016-02-05T12:01:47.905Z,20.83
2016-02-05T12:02:28.503Z,20.82
2016-02-05T12:03:53.552Z,20.85
2016-02-05T12:04:37.432Z,20.8
2016-02-05T12:05:37.481Z,20.83
2016-02-05T12:06:50.234Z,20.78
2016-02-05T12:07:37.519Z,20.88
2016-02-05T12:08:56.756Z,20.8
2016-02-05T12:09:37.574Z,20.77
2016-02-05T12:10:37.640Z,20.78
2016-02-05T12:11:50.361Z,20.78
2016-02-05T12:12:37.645Z,20.86
2016-02-05T12:13:56.882Z,20.75
2016-02-05T12:14:38.306Z,20.83
2016-02-05T12:16:40.342Z,20.83
2016-02-05T12:16:54.342Z,20.83
2016-02-05T12:17:54.363Z,20.85
2016-02-05T12:18:54.397Z,20.78
2016-02-05T12:20:07.197Z,20.75
2016-02-05T12:20:54.465Z,20.88
2016-02-05T12:22:13.674Z,20.8
2016-02-05T12:22:54.488Z,20.8
2016-02-05T12:24:25.884Z,20.8
2016-02-05T12:25:04.260Z,20.82
2016-02-05T12:26:35.703Z,20.85
2016-02-05T12:27:13.846Z,20.89
2016-02-05T12:28:45.255Z,20.86
2016-02-05T12:29:29.210Z,20.83
2016-02-05T12:30:29.232Z,20.77
2016-02-05T12:31:29.296Z,20.8
2016-02-05T12:32:54.987Z,20.89
2016-02-05T12:34:04.618Z,20.82
2016-02-05T12:34:48.512Z,20.78
2016-02-05T12:37:23.769Z,20.82
2016-02-05T12:39:46.106Z,20.74
2016-02-05T12:40:33.281Z,20.71
2016-02-05T12:41:51.816Z,20.86
2016-02-05T12:42:36.335Z,20.78
2016-02-05T12:44:01.384Z,20.78
2016-02-05T12:44:39.668Z,20.9
2016-02-05T12:46:42.284Z,20.78
2016-02-05T12:47:20.536Z,20.8
2016-02-05T12:47:54.911Z,20.77
2016-02-05T12:49:57.556Z,20.83
2016-02-05T12:50:37.220Z,20.77
2016-02-05T12:51:11.580Z,20.73
2016-02-05T12:53:26.790Z,20.82
2016-02-05T12:54:46.059Z,20.8
2016-02-05T12:55:26.861Z,20.74
2016-02-05T12:56:26.896Z,20.82
2016-02-05T12:57:33.399Z,20.74
2016-02-05T12:58:58.245Z,20.74
2016-02-05T13:00:07.826Z,20.73
2016-02-05T13:00:42.189Z,20.8
2016-02-05T13:02:57.476Z,20.8
2016-02-05T13:03:57.292Z,20.75
2016-02-05T13:06:00.667Z,20.77
2016-02-05T13:06:32.466Z,20.74
2016-02-05T13:07:13.294Z,20.8
2016-02-05T13:08:39.112Z,20.71
2016-02-05T13:09:17.442Z,20.74
2016-02-05T13:10:48.731Z,20.8
2016-02-05T13:11:30.030Z,20.82
2016-02-05T13:12:52.689Z,20.75
2016-02-05T13:13:36.582Z,20.77
2016-02-05T13:14:55.913Z,20.75
2016-02-05T13:15:49.370Z,20.85
2016-02-05T13:17:02.388Z,20.8
2016-02-05T13:17:55.875Z,20.82
2016-02-05T13:19:08.660Z,20.8
2016-02-05T13:20:02.444Z,20.78
2016-02-05T13:20:36.790Z,20.8
2016-02-05T13:22:08.199Z,20.8
2016-02-05T13:24:17.928Z,20.83
2016-02-05T13:25:25.008Z,20.78
2016-02-05T13:25:46.617Z,20.77
2016-02-05T13:27:30.686Z,20.78
2016-02-05T13:27:47.311Z,20.73
2016-02-05T13:28:59.440Z,20.83
2016-02-05T13:29:48.146Z,20.82
2016-02-05T13:30:59.479Z,20.89
2016-02-05T13:31:49.677Z,20.78
2016-02-05T13:32:47.512Z,20.78
2016-02-05T13:33:56.714Z,20.8
2016-02-05T13:34:47.453Z,20.83
2016-02-05T13:36:00.021Z,20.8
2016-02-05T13:37:17.117Z,20.78
2016-02-05T13:40:36.970Z,20.83
2016-02-05T13:41:15.220Z,20.73
2016-02-05T13:42:40.899Z,20.83
2016-02-05T13:43:24.817Z,20.8
2016-02-05T13:44:24.818Z,20.82
2016-02-05T13:47:05.663Z,20.78
2016-02-05T13:47:40.023Z,20.8
2016-02-05T13:49:50.480Z,20.83
2016-02-05T13:51:47.659Z,20.77
2016-02-05T13:52:03.268Z,20.85
2016-02-05T13:53:00.271Z,20.75
2016-02-05T13:54:19.507Z,20.78
2016-02-05T13:55:03.275Z,20.78
2016-02-05T13:56:22.641Z,20.73
2016-02-05T13:57:34.769Z,20.75
2016-02-05T13:59:06.087Z,20.74
2016-02-05T13:59:44.339Z,20.82
2016-02-05T14:00:18.683Z,20.75
2016-02-05T14:01:18.717Z,20.82
2016-02-05T14:02:18.767Z,20.78
2016-02-05T14:03:31.524Z,20.8
2016-02-05T14:04:19.416Z,20.78
2016-02-05T14:06:15.813Z,20.71
2016-02-05T14:06:41.157Z,20.82
2016-02-05T14:07:41.159Z,20.73
2016-02-05T14:08:53.961Z,20.78